sensor_id;sensor_type;location;lat;lon;timestamp;P1;durP1;ratioP1;P2;durP2;ratioP2
69906;SDS011;57190;47.918;8.112;2022-12-05T00:00:48;86.67;;;7.63;;
69906;SDS011;57190;47.918;8.112;2022-12-05T00:03:14;476.73;;;24.70;;
69906;SDS011;57190;47.918;8.112;2022-12-05T00:05:40;161.20;;;8.47;;
69906;SDS011;57190;47.918;8.112;2022-12-05T00:08:05;91.63;;;7.10;;
69906;SDS011;57190;47.918;8.112;2022-12-05T00:10:30;31.03;;;3.77;;
69906;SDS011;57190;47.918;8.112;2022-12-05T00:12:56;15.13;;;3.30;;
69906;SDS011;57190;47.918;8.112;2022-12-05T00:15:22;133.20;;;7.27;;
69906;SDS011;57190;47.918;8.112;2022-12-05T00:17:47;64.23;;;5.70;;
69906;SDS011;57190;47.918;8.112;2022-12-05T00:20:13;23.93;;;3.53;;
69906;SDS011;57190;47.918;8.112;2022-12-05T00:22:38;4.73;;;2.47;;
69906;SDS011;57190;47.918;8.112;2022-12-05T00:25:05;3.10;;;2.60;;
69906;SDS011;57190;47.918;8.112;2022-12-05T00:27:31;2.53;;;2.33;;
69906;SDS011;57190;47.918;8.112;2022-12-05T00:29:57;2.60;;;2.40;;
69906;SDS011;57190;47.918;8.112;2022-12-05T00:32:23;1.93;;;1.83;;
69906;SDS011;57190;47.918;8.112;2022-12-05T00:34:48;2.17;;;2.00;;
69906;SDS011;57190;47.918;8.112;2022-12-05T00:37:13;1.80;;;1.70;;
69906;SDS011;57190;47.918;8.112;2022-12-05T00:39:39;1.83;;;1.73;;
69906;SDS011;57190;47.918;8.112;2022-12-05T00:42:04;1.50;;;1.40;;
69906;SDS011;57190;47.918;8.112;2022-12-05T00:44:30;1.70;;;1.60;;
69906;SDS011;57190;47.918;8.112;2022-12-05T00:46:56;1.67;;;1.50;;
69906;SDS011;57190;47.918;8.112;2022-12-05T00:49:21;1.23;;;1.20;;
69906;SDS011;57190;47.918;8.112;2022-12-05T00:51:47;1.50;;;1.40;;
69906;SDS011;57190;47.918;8.112;2022-12-05T00:54:13;1.67;;;1.53;;
69906;SDS011;57190;47.918;8.112;2022-12-05T00:56:40;1.10;;;1.10;;
69906;SDS011;57190;47.918;8.112;2022-12-05T00:59:06;2.47;;;1.17;;
69906;SDS011;57190;47.918;8.112;2022-12-05T01:04:03;1.23;;;1.13;;
69906;SDS011;57190;47.918;8.112;2022-12-05T01:06:31;1.17;;;1.17;;
69906;SDS011;57190;47.918;8.112;2022-12-05T01:08:57;1.37;;;1.27;;
69906;SDS011;57190;47.918;8.112;2022-12-05T01:11:23;1.23;;;1.13;;
69906;SDS011;57190;47.918;8.112;2022-12-05T01:13:50;1.33;;;1.23;;
69906;SDS011;57190;47.918;8.112;2022-12-05T01:16:37;1.50;;;1.40;;
69906;SDS011;57190;47.918;8.112;2022-12-05T01:19:04;1.37;;;1.27;;
69906;SDS011;57190;47.918;8.112;2022-12-05T01:21:31;1.00;;;1.00;;
69906;SDS011;57190;47.918;8.112;2022-12-05T01:23:57;1.43;;;1.33;;
69906;SDS011;57190;47.918;8.112;2022-12-05T01:26:22;1.00;;;1.00;;
69906;SDS011;57190;47.918;8.112;2022-12-05T01:28:49;1.30;;;1.20;;
69906;SDS011;57190;47.918;8.112;2022-12-05T01:33:54;2.40;;;1.00;;
69906;SDS011;57190;47.918;8.112;2022-12-05T01:36:21;0.90;;;0.90;;
69906;SDS011;57190;47.918;8.112;2022-12-05T01:38:48;1.20;;;1.10;;
69906;SDS011;57190;47.918;8.112;2022-12-05T01:41:15;1.10;;;0.93;;
69906;SDS011;57190;47.918;8.112;2022-12-05T01:43:52;0.90;;;0.90;;
69906;SDS011;57190;47.918;8.112;2022-12-05T01:46:26;2.03;;;1.20;;
69906;SDS011;57190;47.918;8.112;2022-12-05T01:48:56;1.10;;;1.10;;
69906;SDS011;57190;47.918;8.112;2022-12-05T01:51:25;0.87;;;0.87;;
69906;SDS011;57190;47.918;8.112;2022-12-05T01:53:52;1.17;;;1.00;;
69906;SDS011;57190;47.918;8.112;2022-12-05T01:56:17;0.77;;;0.77;;
69906;SDS011;57190;47.918;8.112;2022-12-05T01:58:44;0.90;;;0.90;;
69906;SDS011;57190;47.918;8.112;2022-12-05T02:01:11;0.73;;;0.73;;
69906;SDS011;57190;47.918;8.112;2022-12-05T02:03:40;0.87;;;0.87;;
69906;SDS011;57190;47.918;8.112;2022-12-05T02:06:08;0.90;;;0.90;;
69906;SDS011;57190;47.918;8.112;2022-12-05T02:08:35;0.80;;;0.80;;
69906;SDS011;57190;47.918;8.112;2022-12-05T02:11:02;0.70;;;0.70;;
69906;SDS011;57190;47.918;8.112;2022-12-05T02:27:17;0.80;;;0.80;;
69906;SDS011;57190;47.918;8.112;2022-12-05T02:32:27;0.90;;;0.90;;
69906;SDS011;57190;47.918;8.112;2022-12-05T02:41:10;2.60;;;0.80;;
69906;SDS011;57190;47.918;8.112;2022-12-05T02:43:41;0.90;;;0.90;;
69906;SDS011;57190;47.918;8.112;2022-12-05T02:46:09;0.70;;;0.70;;
69906;SDS011;57190;47.918;8.112;2022-12-05T02:48:38;0.77;;;0.77;;
69906;SDS011;57190;47.918;8.112;2022-12-05T02:51:06;0.80;;;0.80;;
69906;SDS011;57190;47.918;8.112;2022-12-05T02:53:34;0.67;;;0.67;;
69906;SDS011;57190;47.918;8.112;2022-12-05T02:56:02;1.00;;;0.90;;
69906;SDS011;57190;47.918;8.112;2022-12-05T02:58:31;0.73;;;0.73;;
69906;SDS011;57190;47.918;8.112;2022-12-05T03:01:00;0.50;;;0.50;;
69906;SDS011;57190;47.918;8.112;2022-12-05T03:03:26;0.73;;;0.73;;
69906;SDS011;57190;47.918;8.112;2022-12-05T03:08:20;0.80;;;0.80;;
69906;SDS011;57190;47.918;8.112;2022-12-05T03:10:49;0.70;;;0.70;;
69906;SDS011;57190;47.918;8.112;2022-12-05T03:13:19;0.70;;;0.70;;
69906;SDS011;57190;47.918;8.112;2022-12-05T03:15:50;0.70;;;0.67;;
69906;SDS011;57190;47.918;8.112;2022-12-05T03:18:21;0.80;;;0.80;;
69906;SDS011;57190;47.918;8.112;2022-12-05T03:21:01;1.03;;;1.03;;
69906;SDS011;57190;47.918;8.112;2022-12-05T03:23:40;0.60;;;0.60;;
69906;SDS011;57190;47.918;8.112;2022-12-05T03:31:17;0.67;;;0.67;;
69906;SDS011;57190;47.918;8.112;2022-12-05T03:33:49;0.60;;;0.60;;
69906;SDS011;57190;47.918;8.112;2022-12-05T03:36:21;0.70;;;0.70;;
69906;SDS011;57190;47.918;8.112;2022-12-05T03:42:20;0.67;;;0.67;;
69906;SDS011;57190;47.918;8.112;2022-12-05T03:44:28;0.70;;;0.70;;
69906;SDS011;57190;47.918;8.112;2022-12-05T03:49:59;0.80;;;0.80;;
69906;SDS011;57190;47.918;8.112;2022-12-05T03:52:31;0.70;;;0.70;;
69906;SDS011;57190;47.918;8.112;2022-12-05T03:55:04;0.60;;;0.60;;
69906;SDS011;57190;47.918;8.112;2022-12-05T03:57:39;0.70;;;0.70;;
69906;SDS011;57190;47.918;8.112;2022-12-05T04:00:20;0.70;;;0.70;;
69906;SDS011;57190;47.918;8.112;2022-12-05T04:05:23;0.83;;;0.83;;
69906;SDS011;57190;47.918;8.112;2022-12-05T04:08:02;0.80;;;0.80;;
69906;SDS011;57190;47.918;8.112;2022-12-05T04:10:32;0.80;;;0.80;;
69906;SDS011;57190;47.918;8.112;2022-12-05T04:13:14;0.50;;;0.50;;
69906;SDS011;57190;47.918;8.112;2022-12-05T04:15:42;0.83;;;0.83;;
69906;SDS011;57190;47.918;8.112;2022-12-05T04:18:31;0.70;;;0.70;;
69906;SDS011;57190;47.918;8.112;2022-12-05T04:20:57;0.80;;;0.80;;
69906;SDS011;57190;47.918;8.112;2022-12-05T04:23:42;0.77;;;0.77;;
69906;SDS011;57190;47.918;8.112;2022-12-05T04:26:23;0.87;;;0.87;;
69906;SDS011;57190;47.918;8.112;2022-12-05T04:28:56;0.70;;;0.70;;
69906;SDS011;57190;47.918;8.112;2022-12-05T04:31:32;1.03;;;0.93;;
69906;SDS011;57190;47.918;8.112;2022-12-05T04:34:05;0.90;;;0.90;;
69906;SDS011;57190;47.918;8.112;2022-12-05T04:36:49;0.93;;;0.93;;
69906;SDS011;57190;47.918;8.112;2022-12-05T04:39:24;3.70;;;2.97;;
69906;SDS011;57190;47.918;8.112;2022-12-05T04:42:05;2.10;;;1.97;;
69906;SDS011;57190;47.918;8.112;2022-12-05T04:44:39;1.20;;;1.10;;
69906;SDS011;57190;47.918;8.112;2022-12-05T04:47:08;0.80;;;0.80;;
69906;SDS011;57190;47.918;8.112;2022-12-05T04:49:38;0.87;;;0.77;;
69906;SDS011;57190;47.918;8.112;2022-12-05T04:52:07;0.70;;;0.70;;
69906;SDS011;57190;47.918;8.112;2022-12-05T04:54:42;0.67;;;0.67;;
69906;SDS011;57190;47.918;8.112;2022-12-05T04:57:15;0.70;;;0.70;;
69906;SDS011;57190;47.918;8.112;2022-12-05T04:59:45;0.60;;;0.60;;
69906;SDS011;57190;47.918;8.112;2022-12-05T05:02:12;0.60;;;0.60;;
69906;SDS011;57190;47.918;8.112;2022-12-05T05:04:45;0.80;;;0.80;;
69906;SDS011;57190;47.918;8.112;2022-12-05T05:07:15;0.70;;;0.70;;
69906;SDS011;57190;47.918;8.112;2022-12-05T05:09:42;0.80;;;0.80;;
69906;SDS011;57190;47.918;8.112;2022-12-05T05:12:08;0.80;;;0.80;;
69906;SDS011;57190;47.918;8.112;2022-12-05T05:14:34;1.17;;;1.10;;
69906;SDS011;57190;47.918;8.112;2022-12-05T05:17:00;1.00;;;1.00;;
69906;SDS011;57190;47.918;8.112;2022-12-05T05:19:25;0.80;;;0.80;;
69906;SDS011;57190;47.918;8.112;2022-12-05T05:21:51;0.80;;;0.80;;
69906;SDS011;57190;47.918;8.112;2022-12-05T05:24:17;0.77;;;0.77;;
69906;SDS011;57190;47.918;8.112;2022-12-05T05:26:45;1.17;;;1.07;;
69906;SDS011;57190;47.918;8.112;2022-12-05T05:29:11;1.23;;;1.13;;
69906;SDS011;57190;47.918;8.112;2022-12-05T05:31:38;0.90;;;0.90;;
69906;SDS011;57190;47.918;8.112;2022-12-05T05:34:04;1.30;;;1.20;;
69906;SDS011;57190;47.918;8.112;2022-12-05T05:36:31;1.40;;;1.30;;
69906;SDS011;57190;47.918;8.112;2022-12-05T05:38:57;1.30;;;1.17;;
69906;SDS011;57190;47.918;8.112;2022-12-05T05:41:25;1.80;;;1.30;;
69906;SDS011;57190;47.918;8.112;2022-12-05T05:43:53;1.10;;;1.00;;
69906;SDS011;57190;47.918;8.112;2022-12-05T05:46:20;1.50;;;1.40;;
69906;SDS011;57190;47.918;8.112;2022-12-05T05:48:47;1.63;;;1.03;;
69906;SDS011;57190;47.918;8.112;2022-12-05T05:51:13;1.40;;;1.30;;
69906;SDS011;57190;47.918;8.112;2022-12-05T05:53:40;4.23;;;3.83;;
69906;SDS011;57190;47.918;8.112;2022-12-05T05:56:07;2.20;;;2.00;;
69906;SDS011;57190;47.918;8.112;2022-12-05T05:58:35;1.50;;;1.40;;
69906;SDS011;57190;47.918;8.112;2022-12-05T06:01:02;1.30;;;1.20;;
69906;SDS011;57190;47.918;8.112;2022-12-05T06:03:31;1.33;;;1.23;;
69906;SDS011;57190;47.918;8.112;2022-12-05T06:06:02;1.30;;;1.20;;
69906;SDS011;57190;47.918;8.112;2022-12-05T06:08:33;1.13;;;1.13;;
69906;SDS011;57190;47.918;8.112;2022-12-05T06:11:11;1.00;;;1.00;;
69906;SDS011;57190;47.918;8.112;2022-12-05T06:13:41;1.40;;;1.30;;
69906;SDS011;57190;47.918;8.112;2022-12-05T06:16:07;1.30;;;1.17;;
69906;SDS011;57190;47.918;8.112;2022-12-05T06:18:34;1.17;;;1.17;;
69906;SDS011;57190;47.918;8.112;2022-12-05T06:21:00;1.43;;;1.33;;
69906;SDS011;57190;47.918;8.112;2022-12-05T06:23:26;1.07;;;1.07;;
69906;SDS011;57190;47.918;8.112;2022-12-05T06:25:53;1.20;;;1.10;;
69906;SDS011;57190;47.918;8.112;2022-12-05T06:28:20;1.10;;;1.10;;
69906;SDS011;57190;47.918;8.112;2022-12-05T06:30:47;1.37;;;1.27;;
69906;SDS011;57190;47.918;8.112;2022-12-05T06:33:13;1.40;;;1.30;;
69906;SDS011;57190;47.918;8.112;2022-12-05T06:35:39;1.27;;;1.27;;
69906;SDS011;57190;47.918;8.112;2022-12-05T06:38:05;1.07;;;1.07;;
69906;SDS011;57190;47.918;8.112;2022-12-05T06:40:31;1.00;;;1.00;;
69906;SDS011;57190;47.918;8.112;2022-12-05T06:42:57;1.20;;;1.20;;
69906;SDS011;57190;47.918;8.112;2022-12-05T06:45:22;1.40;;;1.30;;
69906;SDS011;57190;47.918;8.112;2022-12-05T06:47:49;1.20;;;1.10;;
69906;SDS011;57190;47.918;8.112;2022-12-05T06:50:15;1.00;;;1.00;;
69906;SDS011;57190;47.918;8.112;2022-12-05T06:52:40;1.20;;;1.10;;
69906;SDS011;57190;47.918;8.112;2022-12-05T06:55:06;1.00;;;1.00;;
69906;SDS011;57190;47.918;8.112;2022-12-05T06:57:32;1.00;;;1.00;;
69906;SDS011;57190;47.918;8.112;2022-12-05T06:59:57;0.90;;;0.90;;
69906;SDS011;57190;47.918;8.112;2022-12-05T07:02:46;0.90;;;0.90;;
69906;SDS011;57190;47.918;8.112;2022-12-05T07:05:15;1.13;;;1.03;;
69906;SDS011;57190;47.918;8.112;2022-12-05T07:07:40;1.03;;;1.00;;
69906;SDS011;57190;47.918;8.112;2022-12-05T07:10:06;1.10;;;1.10;;
69906;SDS011;57190;47.918;8.112;2022-12-05T07:12:32;2.13;;;1.80;;
69906;SDS011;57190;47.918;8.112;2022-12-05T07:14:58;1.47;;;1.37;;
69906;SDS011;57190;47.918;8.112;2022-12-05T07:17:24;1.17;;;1.17;;
69906;SDS011;57190;47.918;8.112;2022-12-05T07:19:49;1.40;;;1.30;;
69906;SDS011;57190;47.918;8.112;2022-12-05T07:22:17;1.20;;;1.10;;
69906;SDS011;57190;47.918;8.112;2022-12-05T07:24:43;1.57;;;1.47;;
69906;SDS011;57190;47.918;8.112;2022-12-05T07:27:09;1.40;;;1.30;;
69906;SDS011;57190;47.918;8.112;2022-12-05T07:29:36;1.77;;;1.57;;
69906;SDS011;57190;47.918;8.112;2022-12-05T07:32:01;1.70;;;1.60;;
69906;SDS011;57190;47.918;8.112;2022-12-05T07:34:27;1.70;;;1.60;;
69906;SDS011;57190;47.918;8.112;2022-12-05T07:36:53;1.67;;;1.53;;
69906;SDS011;57190;47.918;8.112;2022-12-05T07:39:18;1.50;;;1.40;;
69906;SDS011;57190;47.918;8.112;2022-12-05T07:41:44;3.40;;;3.20;;
69906;SDS011;57190;47.918;8.112;2022-12-05T07:44:10;3.73;;;3.43;;
69906;SDS011;57190;47.918;8.112;2022-12-05T07:46:36;2.20;;;2.00;;
69906;SDS011;57190;47.918;8.112;2022-12-05T07:49:02;2.37;;;2.17;;
69906;SDS011;57190;47.918;8.112;2022-12-05T07:51:28;2.40;;;2.20;;
69906;SDS011;57190;47.918;8.112;2022-12-05T07:53:54;1.77;;;1.67;;
69906;SDS011;57190;47.918;8.112;2022-12-05T07:56:19;2.20;;;2.00;;
69906;SDS011;57190;47.918;8.112;2022-12-05T07:58:46;1.73;;;1.63;;
69906;SDS011;57190;47.918;8.112;2022-12-05T08:01:23;1.60;;;1.50;;
69906;SDS011;57190;47.918;8.112;2022-12-05T08:03:51;1.80;;;1.70;;
69906;SDS011;57190;47.918;8.112;2022-12-05T08:06:20;1.83;;;1.73;;
69906;SDS011;57190;47.918;8.112;2022-12-05T08:08:49;1.60;;;1.50;;
69906;SDS011;57190;47.918;8.112;2022-12-05T08:11:16;1.60;;;1.50;;
69906;SDS011;57190;47.918;8.112;2022-12-05T08:13:44;1.43;;;1.33;;
69906;SDS011;57190;47.918;8.112;2022-12-05T08:16:11;1.50;;;1.40;;
69906;SDS011;57190;47.918;8.112;2022-12-05T08:18:38;1.60;;;1.50;;
69906;SDS011;57190;47.918;8.112;2022-12-05T08:21:05;1.60;;;1.50;;
69906;SDS011;57190;47.918;8.112;2022-12-05T08:23:33;1.90;;;1.80;;
69906;SDS011;57190;47.918;8.112;2022-12-05T08:26:18;1.60;;;1.50;;
69906;SDS011;57190;47.918;8.112;2022-12-05T08:28:49;1.37;;;1.27;;
69906;SDS011;57190;47.918;8.112;2022-12-05T08:31:21;1.23;;;1.13;;
69906;SDS011;57190;47.918;8.112;2022-12-05T08:33:48;1.60;;;1.50;;
69906;SDS011;57190;47.918;8.112;2022-12-05T08:36:15;1.40;;;1.30;;
69906;SDS011;57190;47.918;8.112;2022-12-05T08:38:42;1.47;;;1.20;;
69906;SDS011;57190;47.918;8.112;2022-12-05T08:41:09;1.30;;;1.20;;
69906;SDS011;57190;47.918;8.112;2022-12-05T08:43:37;1.67;;;1.57;;
69906;SDS011;57190;47.918;8.112;2022-12-05T08:46:03;1.40;;;1.30;;
69906;SDS011;57190;47.918;8.112;2022-12-05T08:48:32;1.60;;;1.50;;
69906;SDS011;57190;47.918;8.112;2022-12-05T08:51:05;1.40;;;1.30;;
69906;SDS011;57190;47.918;8.112;2022-12-05T08:53:32;1.30;;;1.30;;
69906;SDS011;57190;47.918;8.112;2022-12-05T08:56:04;7.73;;;6.13;;
69906;SDS011;57190;47.918;8.112;2022-12-05T08:58:32;17.83;;;13.43;;
69906;SDS011;57190;47.918;8.112;2022-12-05T09:01:11;3.50;;;3.00;;
69906;SDS011;57190;47.918;8.112;2022-12-05T09:03:38;3.30;;;3.00;;
69906;SDS011;57190;47.918;8.112;2022-12-05T09:06:05;2.50;;;2.30;;
69906;SDS011;57190;47.918;8.112;2022-12-05T09:08:32;2.17;;;2.00;;
69906;SDS011;57190;47.918;8.112;2022-12-05T09:10:58;1.60;;;1.50;;
69906;SDS011;57190;47.918;8.112;2022-12-05T09:13:23;1.23;;;1.13;;
69906;SDS011;57190;47.918;8.112;2022-12-05T09:15:49;1.83;;;1.73;;
69906;SDS011;57190;47.918;8.112;2022-12-05T09:18:14;2.60;;;2.37;;
69906;SDS011;57190;47.918;8.112;2022-12-05T09:20:40;2.30;;;2.10;;
69906;SDS011;57190;47.918;8.112;2022-12-05T09:23:05;2.53;;;2.33;;
69906;SDS011;57190;47.918;8.112;2022-12-05T09:25:31;2.00;;;1.90;;
69906;SDS011;57190;47.918;8.112;2022-12-05T09:27:56;1.87;;;1.70;;
69906;SDS011;57190;47.918;8.112;2022-12-05T09:30:22;1.27;;;1.17;;
69906;SDS011;57190;47.918;8.112;2022-12-05T09:32:47;1.20;;;1.20;;
69906;SDS011;57190;47.918;8.112;2022-12-05T09:35:13;1.27;;;1.17;;
69906;SDS011;57190;47.918;8.112;2022-12-05T09:37:38;1.40;;;1.30;;
69906;SDS011;57190;47.918;8.112;2022-12-05T09:40:04;14.93;;;9.40;;
69906;SDS011;57190;47.918;8.112;2022-12-05T09:42:42;29.83;;;16.57;;
69906;SDS011;57190;47.918;8.112;2022-12-05T09:45:38;16.57;;;14.90;;
69906;SDS011;57190;47.918;8.112;2022-12-05T09:48:18;12.87;;;8.83;;
69906;SDS011;57190;47.918;8.112;2022-12-05T09:50:59;11.73;;;7.13;;
69906;SDS011;57190;47.918;8.112;2022-12-05T09:53:34;8.87;;;5.27;;
69906;SDS011;57190;47.918;8.112;2022-12-05T09:56:04;4.53;;;3.53;;
69906;SDS011;57190;47.918;8.112;2022-12-05T10:01:11;2.30;;;2.10;;
69906;SDS011;57190;47.918;8.112;2022-12-05T10:06:54;2.73;;;2.53;;
69906;SDS011;57190;47.918;8.112;2022-12-05T10:15:18;1.57;;;1.47;;
69906;SDS011;57190;47.918;8.112;2022-12-05T10:17:55;1.27;;;1.20;;
69906;SDS011;57190;47.918;8.112;2022-12-05T10:25:55;1.20;;;1.10;;
69906;SDS011;57190;47.918;8.112;2022-12-05T10:28:29;1.00;;;1.00;;
69906;SDS011;57190;47.918;8.112;2022-12-05T10:31:01;1.10;;;1.10;;
69906;SDS011;57190;47.918;8.112;2022-12-05T10:33:32;1.53;;;1.20;;
69906;SDS011;57190;47.918;8.112;2022-12-05T10:36:08;1.27;;;1.17;;
69906;SDS011;57190;47.918;8.112;2022-12-05T10:38:35;1.40;;;1.30;;
69906;SDS011;57190;47.918;8.112;2022-12-05T10:41:03;1.40;;;1.30;;
69906;SDS011;57190;47.918;8.112;2022-12-05T10:43:32;1.17;;;1.13;;
69906;SDS011;57190;47.918;8.112;2022-12-05T10:45:58;1.20;;;1.17;;
69906;SDS011;57190;47.918;8.112;2022-12-05T10:48:26;1.07;;;1.03;;
69906;SDS011;57190;47.918;8.112;2022-12-05T10:50:53;1.50;;;1.40;;
69906;SDS011;57190;47.918;8.112;2022-12-05T10:53:24;1.00;;;1.00;;
69906;SDS011;57190;47.918;8.112;2022-12-05T10:55:52;1.00;;;1.00;;
69906;SDS011;57190;47.918;8.112;2022-12-05T10:58:28;1.07;;;1.00;;
69906;SDS011;57190;47.918;8.112;2022-12-05T11:01:05;1.20;;;1.13;;
69906;SDS011;57190;47.918;8.112;2022-12-05T11:03:33;1.20;;;1.10;;
69906;SDS011;57190;47.918;8.112;2022-12-05T11:06:13;1.00;;;1.00;;
69906;SDS011;57190;47.918;8.112;2022-12-05T11:08:41;1.13;;;1.03;;
69906;SDS011;57190;47.918;8.112;2022-12-05T11:11:19;1.37;;;1.27;;
69906;SDS011;57190;47.918;8.112;2022-12-05T11:13:54;1.80;;;1.23;;
69906;SDS011;57190;47.918;8.112;2022-12-05T11:16:22;1.10;;;1.10;;
69906;SDS011;57190;47.918;8.112;2022-12-05T11:19:07;1.00;;;1.00;;
69906;SDS011;57190;47.918;8.112;2022-12-05T11:22:03;0.90;;;0.90;;
69906;SDS011;57190;47.918;8.112;2022-12-05T11:24:38;1.10;;;1.10;;
69906;SDS011;57190;47.918;8.112;2022-12-05T11:29:43;1.00;;;1.00;;
69906;SDS011;57190;47.918;8.112;2022-12-05T11:32:18;1.90;;;1.10;;
69906;SDS011;57190;47.918;8.112;2022-12-05T11:34:52;1.10;;;1.00;;
69906;SDS011;57190;47.918;8.112;2022-12-05T11:37:31;1.13;;;1.10;;
69906;SDS011;57190;47.918;8.112;2022-12-05T11:40:20;1.47;;;1.13;;
69906;SDS011;57190;47.918;8.112;2022-12-05T11:43:06;1.20;;;1.00;;
69906;SDS011;57190;47.918;8.112;2022-12-05T11:45:48;1.00;;;1.00;;
69906;SDS011;57190;47.918;8.112;2022-12-05T11:51:24;1.30;;;1.00;;
69906;SDS011;57190;47.918;8.112;2022-12-05T12:00:13;1.10;;;1.10;;
69906;SDS011;57190;47.918;8.112;2022-12-05T12:09:41;1.17;;;1.10;;
69906;SDS011;57190;47.918;8.112;2022-12-05T12:11:42;1.33;;;1.23;;
69906;SDS011;57190;47.918;8.112;2022-12-05T12:14:24;1.27;;;1.17;;
69906;SDS011;57190;47.918;8.112;2022-12-05T12:26:52;1.23;;;1.23;;
69906;SDS011;57190;47.918;8.112;2022-12-05T12:46:58;1.40;;;1.30;;
69906;SDS011;57190;47.918;8.112;2022-12-05T12:58:38;1.60;;;1.50;;
69906;SDS011;57190;47.918;8.112;2022-12-05T13:01:20;1.30;;;1.20;;
69906;SDS011;57190;47.918;8.112;2022-12-05T13:04:18;1.63;;;1.53;;
69906;SDS011;57190;47.918;8.112;2022-12-05T13:06:59;2.10;;;1.90;;
69906;SDS011;57190;47.918;8.112;2022-12-05T13:12:31;2.03;;;1.80;;
69906;SDS011;57190;47.918;8.112;2022-12-05T13:15:06;1.70;;;1.60;;
69906;SDS011;57190;47.918;8.112;2022-12-05T13:17:56;1.50;;;1.40;;
69906;SDS011;57190;47.918;8.112;2022-12-05T13:36:53;1.27;;;1.17;;
69906;SDS011;57190;47.918;8.112;2022-12-05T13:39:40;1.40;;;1.30;;
69906;SDS011;57190;47.918;8.112;2022-12-05T13:42:25;1.27;;;1.17;;
69906;SDS011;57190;47.918;8.112;2022-12-05T13:52:58;2.63;;;1.83;;
69906;SDS011;57190;47.918;8.112;2022-12-05T13:55:27;2.20;;;2.10;;
69906;SDS011;57190;47.918;8.112;2022-12-05T13:57:56;2.40;;;2.20;;
69906;SDS011;57190;47.918;8.112;2022-12-05T14:00:29;2.33;;;2.13;;
69906;SDS011;57190;47.918;8.112;2022-12-05T14:03:00;2.00;;;1.90;;
69906;SDS011;57190;47.918;8.112;2022-12-05T14:15:46;2.30;;;2.20;;
69906;SDS011;57190;47.918;8.112;2022-12-05T14:18:14;2.17;;;2.07;;
69906;SDS011;57190;47.918;8.112;2022-12-05T14:28:57;2.43;;;2.23;;
69906;SDS011;57190;47.918;8.112;2022-12-05T14:34:15;2.27;;;2.07;;
69906;SDS011;57190;47.918;8.112;2022-12-05T14:37:02;2.77;;;2.57;;
69906;SDS011;57190;47.918;8.112;2022-12-05T14:39:37;12.73;;;10.70;;
69906;SDS011;57190;47.918;8.112;2022-12-05T14:42:16;2.20;;;2.03;;
69906;SDS011;57190;47.918;8.112;2022-12-05T14:44:48;2.43;;;2.23;;
69906;SDS011;57190;47.918;8.112;2022-12-05T14:47:25;2.67;;;2.47;;
69906;SDS011;57190;47.918;8.112;2022-12-05T14:49:57;2.80;;;2.60;;
69906;SDS011;57190;47.918;8.112;2022-12-05T14:52:41;2.57;;;2.37;;
69906;SDS011;57190;47.918;8.112;2022-12-05T14:55:12;2.30;;;2.10;;
69906;SDS011;57190;47.918;8.112;2022-12-05T14:57:45;2.10;;;1.83;;
69906;SDS011;57190;47.918;8.112;2022-12-05T15:00:17;2.70;;;2.50;;
69906;SDS011;57190;47.918;8.112;2022-12-05T15:02:46;2.80;;;2.60;;
69906;SDS011;57190;47.918;8.112;2022-12-05T15:05:31;2.57;;;2.37;;
69906;SDS011;57190;47.918;8.112;2022-12-05T15:07:58;2.50;;;2.30;;
69906;SDS011;57190;47.918;8.112;2022-12-05T15:10:32;3.07;;;2.87;;
69906;SDS011;57190;47.918;8.112;2022-12-05T15:13:02;3.00;;;2.80;;
69906;SDS011;57190;47.918;8.112;2022-12-05T15:15:36;4.33;;;2.60;;
69906;SDS011;57190;47.918;8.112;2022-12-05T15:20:53;3.20;;;3.00;;
69906;SDS011;57190;47.918;8.112;2022-12-05T15:29:23;2.77;;;2.57;;
69906;SDS011;57190;47.918;8.112;2022-12-05T15:34:29;3.70;;;3.40;;
69906;SDS011;57190;47.918;8.112;2022-12-05T15:39:49;3.17;;;2.97;;
69906;SDS011;57190;47.918;8.112;2022-12-05T15:42:44;3.03;;;2.83;;
69906;SDS011;57190;47.918;8.112;2022-12-05T15:45:18;2.83;;;2.63;;
69906;SDS011;57190;47.918;8.112;2022-12-05T15:50:37;2.87;;;2.67;;
69906;SDS011;57190;47.918;8.112;2022-12-05T15:55:37;3.17;;;2.97;;
69906;SDS011;57190;47.918;8.112;2022-12-05T16:03:39;3.33;;;3.03;;
69906;SDS011;57190;47.918;8.112;2022-12-05T16:06:10;2.90;;;2.70;;
69906;SDS011;57190;47.918;8.112;2022-12-05T16:08:47;2.70;;;2.50;;
69906;SDS011;57190;47.918;8.112;2022-12-05T16:11:15;3.20;;;3.00;;
69906;SDS011;57190;47.918;8.112;2022-12-05T16:13:53;2.70;;;2.50;;
69906;SDS011;57190;47.918;8.112;2022-12-05T16:16:23;2.80;;;2.60;;
69906;SDS011;57190;47.918;8.112;2022-12-05T16:19:02;2.97;;;2.77;;
69906;SDS011;57190;47.918;8.112;2022-12-05T16:21:36;2.60;;;2.40;;
69906;SDS011;57190;47.918;8.112;2022-12-05T16:24:06;2.60;;;2.40;;
69906;SDS011;57190;47.918;8.112;2022-12-05T16:26:39;2.80;;;2.50;;
69906;SDS011;57190;47.918;8.112;2022-12-05T16:29:05;3.00;;;2.80;;
69906;SDS011;57190;47.918;8.112;2022-12-05T16:31:33;2.73;;;2.53;;
69906;SDS011;57190;47.918;8.112;2022-12-05T16:36:32;2.80;;;2.60;;
69906;SDS011;57190;47.918;8.112;2022-12-05T16:39:03;2.40;;;2.20;;
69906;SDS011;57190;47.918;8.112;2022-12-05T16:41:31;2.30;;;2.10;;
69906;SDS011;57190;47.918;8.112;2022-12-05T16:44:02;2.57;;;2.37;;
69906;SDS011;57190;47.918;8.112;2022-12-05T16:51:57;2.13;;;2.03;;
69906;SDS011;57190;47.918;8.112;2022-12-05T16:54:36;2.00;;;1.90;;
69906;SDS011;57190;47.918;8.112;2022-12-05T16:57:02;2.23;;;2.03;;
69906;SDS011;57190;47.918;8.112;2022-12-05T17:01:56;2.30;;;1.93;;
69906;SDS011;57190;47.918;8.112;2022-12-05T17:04:22;1.73;;;1.63;;
69906;SDS011;57190;47.918;8.112;2022-12-05T17:06:47;1.73;;;1.63;;
69906;SDS011;57190;47.918;8.112;2022-12-05T17:09:13;2.30;;;2.10;;
69906;SDS011;57190;47.918;8.112;2022-12-05T17:11:39;1.70;;;1.60;;
69906;SDS011;57190;47.918;8.112;2022-12-05T17:14:12;1.60;;;1.50;;
69906;SDS011;57190;47.918;8.112;2022-12-05T17:16:40;1.77;;;1.67;;
69906;SDS011;57190;47.918;8.112;2022-12-05T17:19:08;1.70;;;1.60;;
69906;SDS011;57190;47.918;8.112;2022-12-05T17:21:35;1.70;;;1.60;;
69906;SDS011;57190;47.918;8.112;2022-12-05T17:24:02;1.90;;;1.80;;
69906;SDS011;57190;47.918;8.112;2022-12-05T17:26:27;1.30;;;1.20;;
69906;SDS011;57190;47.918;8.112;2022-12-05T17:28:53;1.90;;;1.80;;
69906;SDS011;57190;47.918;8.112;2022-12-05T17:31:20;1.83;;;1.73;;
69906;SDS011;57190;47.918;8.112;2022-12-05T17:33:47;2.00;;;1.90;;
69906;SDS011;57190;47.918;8.112;2022-12-05T17:36:14;1.60;;;1.50;;
69906;SDS011;57190;47.918;8.112;2022-12-05T17:38:40;1.80;;;1.70;;
69906;SDS011;57190;47.918;8.112;2022-12-05T17:41:05;1.40;;;1.30;;
69906;SDS011;57190;47.918;8.112;2022-12-05T17:43:31;1.60;;;1.50;;
69906;SDS011;57190;47.918;8.112;2022-12-05T17:46:00;1.40;;;1.30;;
69906;SDS011;57190;47.918;8.112;2022-12-05T17:48:26;1.40;;;1.30;;
69906;SDS011;57190;47.918;8.112;2022-12-05T17:50:52;2.00;;;1.80;;
69906;SDS011;57190;47.918;8.112;2022-12-05T17:53:21;1.73;;;1.63;;
69906;SDS011;57190;47.918;8.112;2022-12-05T17:55:47;1.83;;;1.73;;
69906;SDS011;57190;47.918;8.112;2022-12-05T17:58:14;1.50;;;1.40;;
69906;SDS011;57190;47.918;8.112;2022-12-05T18:00:40;2.13;;;2.03;;
69906;SDS011;57190;47.918;8.112;2022-12-05T18:03:10;2.20;;;2.07;;
69906;SDS011;57190;47.918;8.112;2022-12-05T18:05:37;2.10;;;2.00;;
69906;SDS011;57190;47.918;8.112;2022-12-05T18:08:03;1.97;;;1.87;;
69906;SDS011;57190;47.918;8.112;2022-12-05T18:10:29;2.10;;;1.40;;
69906;SDS011;57190;47.918;8.112;2022-12-05T18:12:54;1.60;;;1.50;;
69906;SDS011;57190;47.918;8.112;2022-12-05T18:15:20;1.73;;;1.63;;
69906;SDS011;57190;47.918;8.112;2022-12-05T18:17:46;1.80;;;1.70;;
69906;SDS011;57190;47.918;8.112;2022-12-05T18:20:12;2.00;;;1.90;;
69906;SDS011;57190;47.918;8.112;2022-12-05T18:22:38;1.87;;;1.77;;
69906;SDS011;57190;47.918;8.112;2022-12-05T18:25:04;1.80;;;1.70;;